Unicom:                    122.8

AWOS:                  118.275

Elevation           1458’ MSL

TPA:                   2500’ MSL

06/24:         5003’ L   75’ W

PAPI:       06/Left     24/Left

(Operate lights on unicom freq.)

Traffic Pattern: Left

Beacon: Sunset to Sunrise

Windsock: yes, lighted

Segmented Circle: No

 

Cleveland Center: 126.72/291.65

FSS: Altoona

[Source: ADDS]
METAR
KFKL 281756Z AUTO 36004KT 9SM -SN OVC014 M05/M08 A3005 RMK AO2 SLP198 P0000 60000 T10501078 11044 21061 58012 FZRANO =
KFKL 281727Z 2818/2918 01008KT 6SM BR VCSH OVC020 FM281900 36007KT P6SM BKN012 FM290600 01005KT P6SM BKN035 FM291500 35009G17KT P6SM SCT060
TAF
KFKL 281727Z 2818/2918 01008KT 6SM BR VCSH OVC020 FM281900 36007KT P6SM BKN012 FM290600 01005KT P6SM BKN035 FM291500 35009G17KT P6SM SCT060 =
[Source: ADDS]
METAR
KDUJ 281753Z AUTO 00000KT 10SM BKN027 OVC060 M02/M07 A2999 RMK AO2 SLP175 60001 T10171072 11017 21050 58015 =
KDUJ 281727Z 2818/2918 36005KT 6SM BR VCSH OVC015 FM282000 01008KT P6SM OVC020 FM290600 02007KT P6SM SCT029 FM291300 35008G17KT P6SM SCT070
TAF
KDUJ 281727Z 2818/2918 36005KT 6SM BR VCSH OVC015 FM282000 01008KT P6SM OVC020 FM290600 02007KT P6SM SCT029 FM291300 35008G17KT P6SM SCT070 =

Airport Information. 

Runway Length: 5003ft x 75ft

Runways 6/24

Traffic Pattern: Left

PAPI’s: 2 light PAPI on left of both 6/24

TPA: 2500 msl

Field Elevation: 1458 msl

Surface: Asphalt

Beacon: Operates Sunset-Sunrise

Pilot Controlled Lighting:  yes 122.8

 

Fuel:

Jet-A w/prist

100 LL

Center point fueling available upon request.

 

Unicom Frequency: 122.8

AWOS Frequency: 118.27  (814-227-2899)

 

Cleveland Center: 126.72 (440-774-0442)

 

GPS Approach Plates for 6/24 download here: http://www.airnav.com/airport/KAXQ

[Source: ADDS]
METAR
KFKL 281756Z AUTO 36004KT 9SM -SN OVC014 M05/M08 A3005 RMK AO2 SLP198 P0000 60000 T10501078 11044 21061 58012 FZRANO =
KFKL 281727Z 2818/2918 01008KT 6SM BR VCSH OVC020 FM281900 36007KT P6SM BKN012 FM290600 01005KT P6SM BKN035 FM291500 35009G17KT P6SM SCT060
TAF
KFKL 281727Z 2818/2918 01008KT 6SM BR VCSH OVC020 FM281900 36007KT P6SM BKN012 FM290600 01005KT P6SM BKN035 FM291500 35009G17KT P6SM SCT060 =
[Source: ADDS]
METAR
KDUJ 281753Z AUTO 00000KT 10SM BKN027 OVC060 M02/M07 A2999 RMK AO2 SLP175 60001 T10171072 11017 21050 58015 =
KDUJ 281727Z 2818/2918 36005KT 6SM BR VCSH OVC015 FM282000 01008KT P6SM OVC020 FM290600 02007KT P6SM SCT029 FM291300 35008G17KT P6SM SCT070
TAF
KDUJ 281727Z 2818/2918 36005KT 6SM BR VCSH OVC015 FM282000 01008KT P6SM OVC020 FM290600 02007KT P6SM SCT029 FM291300 35008G17KT P6SM SCT070 =
The Clarion County Airport Authority Meetings for 2022 will be held the third Tuesday of each month at 7PM (1900 Hours) in the Airport Conference Room.